sensor_id;sensor_type;location;lat;lon;timestamp;temperature;humidity
40676;DHT22;26359;48.750;9.314;2023-10-19T00:00:37;10.30;99.90
40676;DHT22;26359;48.750;9.314;2023-10-19T00:03:06;10.30;99.90
40676;DHT22;26359;48.750;9.314;2023-10-19T00:05:32;10.30;99.90
40676;DHT22;26359;48.750;9.314;2023-10-19T00:07:59;10.40;99.90
40676;DHT22;26359;48.750;9.314;2023-10-19T00:10:26;10.40;99.90
40676;DHT22;26359;48.750;9.314;2023-10-19T00:12:55;10.40;99.90
40676;DHT22;26359;48.750;9.314;2023-10-19T00:15:37;10.40;99.90
40676;DHT22;26359;48.750;9.314;2023-10-19T00:18:07;10.40;99.90
40676;DHT22;26359;48.750;9.314;2023-10-19T00:20:59;10.40;99.90
40676;DHT22;26359;48.750;9.314;2023-10-19T00:23:24;10.40;99.90
40676;DHT22;26359;48.750;9.314;2023-10-19T00:26:01;10.40;99.90
40676;DHT22;26359;48.750;9.314;2023-10-19T00:28:34;10.50;99.90
40676;DHT22;26359;48.750;9.314;2023-10-19T00:31:01;10.40;99.90
40676;DHT22;26359;48.750;9.314;2023-10-19T00:33:33;10.50;99.90
40676;DHT22;26359;48.750;9.314;2023-10-19T00:36:02;10.50;99.90
40676;DHT22;26359;48.750;9.314;2023-10-19T00:38:37;10.50;99.90
40676;DHT22;26359;48.750;9.314;2023-10-19T00:41:04;10.50;99.90
40676;DHT22;26359;48.750;9.314;2023-10-19T00:43:33;10.50;99.90
40676;DHT22;26359;48.750;9.314;2023-10-19T00:46:02;10.50;99.90
40676;DHT22;26359;48.750;9.314;2023-10-19T00:48:29;10.50;99.90
40676;DHT22;26359;48.750;9.314;2023-10-19T00:50:55;10.50;99.90
40676;DHT22;26359;48.750;9.314;2023-10-19T00:53:37;10.50;99.90
40676;DHT22;26359;48.750;9.314;2023-10-19T00:56:04;10.60;99.90
40676;DHT22;26359;48.750;9.314;2023-10-19T00:58:32;10.60;99.90
40676;DHT22;26359;48.750;9.314;2023-10-19T01:01:02;10.60;99.90
40676;DHT22;26359;48.750;9.314;2023-10-19T01:03:31;10.60;99.90
40676;DHT22;26359;48.750;9.314;2023-10-19T01:06:02;10.70;99.90
40676;DHT22;26359;48.750;9.314;2023-10-19T01:08:36;10.60;99.90
40676;DHT22;26359;48.750;9.314;2023-10-19T01:11:08;10.70;99.90
40676;DHT22;26359;48.750;9.314;2023-10-19T01:13:38;10.70;99.90
40676;DHT22;26359;48.750;9.314;2023-10-19T01:16:03;10.70;99.90
40676;DHT22;26359;48.750;9.314;2023-10-19T01:18:30;10.70;99.90
40676;DHT22;26359;48.750;9.314;2023-10-19T01:20:59;10.80;99.90
40676;DHT22;26359;48.750;9.314;2023-10-19T01:23:29;10.90;99.90
40676;DHT22;26359;48.750;9.314;2023-10-19T01:25:57;10.90;99.90
40676;DHT22;26359;48.750;9.314;2023-10-19T01:28:24;10.80;99.90
40676;DHT22;26359;48.750;9.314;2023-10-19T01:31:11;10.70;99.90
40676;DHT22;26359;48.750;9.314;2023-10-19T01:33:41;10.70;99.90
40676;DHT22;26359;48.750;9.314;2023-10-19T01:36:08;10.70;99.90
40676;DHT22;26359;48.750;9.314;2023-10-19T01:38:36;10.80;99.90
40676;DHT22;26359;48.750;9.314;2023-10-19T01:41:03;10.80;99.90
40676;DHT22;26359;48.750;9.314;2023-10-19T01:43:40;10.80;99.90
40676;DHT22;26359;48.750;9.314;2023-10-19T01:46:06;10.80;99.90
40676;DHT22;26359;48.750;9.314;2023-10-19T01:48:49;10.80;99.90
40676;DHT22;26359;48.750;9.314;2023-10-19T01:51:15;10.70;99.90
40676;DHT22;26359;48.750;9.314;2023-10-19T01:53:42;10.80;99.90
40676;DHT22;26359;48.750;9.314;2023-10-19T01:56:12;10.80;99.90
40676;DHT22;26359;48.750;9.314;2023-10-19T01:58:40;10.80;99.90
40676;DHT22;26359;48.750;9.314;2023-10-19T02:01:06;10.80;99.90
40676;DHT22;26359;48.750;9.314;2023-10-19T02:03:38;10.90;99.90
40676;DHT22;26359;48.750;9.314;2023-10-19T02:06:16;11.00;99.90
40676;DHT22;26359;48.750;9.314;2023-10-19T02:09:06;11.00;99.90
40676;DHT22;26359;48.750;9.314;2023-10-19T02:11:43;10.90;99.90
40676;DHT22;26359;48.750;9.314;2023-10-19T02:14:12;10.80;99.90
40676;DHT22;26359;48.750;9.314;2023-10-19T02:19:07;10.80;99.90
40676;DHT22;26359;48.750;9.314;2023-10-19T02:21:33;10.80;99.90
40676;DHT22;26359;48.750;9.314;2023-10-19T02:24:03;10.80;99.90
40676;DHT22;26359;48.750;9.314;2023-10-19T02:26:29;10.90;99.90
40676;DHT22;26359;48.750;9.314;2023-10-19T02:28:56;11.00;99.90
40676;DHT22;26359;48.750;9.314;2023-10-19T02:31:24;10.90;99.90
40676;DHT22;26359;48.750;9.314;2023-10-19T02:33:54;10.90;99.90
40676;DHT22;26359;48.750;9.314;2023-10-19T02:36:29;11.00;99.90
40676;DHT22;26359;48.750;9.314;2023-10-19T02:39:01;11.00;99.90
40676;DHT22;26359;48.750;9.314;2023-10-19T02:41:44;11.10;99.90
40676;DHT22;26359;48.750;9.314;2023-10-19T02:44:12;11.10;99.90
40676;DHT22;26359;48.750;9.314;2023-10-19T02:46:40;11.10;99.90
40676;DHT22;26359;48.750;9.314;2023-10-19T02:49:07;11.10;99.90
40676;DHT22;26359;48.750;9.314;2023-10-19T02:51:37;11.00;99.90
40676;DHT22;26359;48.750;9.314;2023-10-19T02:54:02;11.00;99.90
40676;DHT22;26359;48.750;9.314;2023-10-19T02:56:28;11.00;99.90
40676;DHT22;26359;48.750;9.314;2023-10-19T02:58:57;11.00;99.90
40676;DHT22;26359;48.750;9.314;2023-10-19T03:01:30;10.90;99.90
40676;DHT22;26359;48.750;9.314;2023-10-19T03:04:02;10.90;99.90
40676;DHT22;26359;48.750;9.314;2023-10-19T03:06:31;10.90;99.90
40676;DHT22;26359;48.750;9.314;2023-10-19T03:09:03;10.90;99.90
40676;DHT22;26359;48.750;9.314;2023-10-19T03:11:48;10.90;99.90
40676;DHT22;26359;48.750;9.314;2023-10-19T03:14:18;10.90;99.90
40676;DHT22;26359;48.750;9.314;2023-10-19T03:16:44;10.80;99.90
40676;DHT22;26359;48.750;9.314;2023-10-19T03:19:11;10.80;99.90
40676;DHT22;26359;48.750;9.314;2023-10-19T03:21:38;10.80;99.90
40676;DHT22;26359;48.750;9.314;2023-10-19T03:24:11;10.90;99.90
40676;DHT22;26359;48.750;9.314;2023-10-19T03:26:57;10.90;99.90
40676;DHT22;26359;48.750;9.314;2023-10-19T03:29:25;10.90;99.90
40676;DHT22;26359;48.750;9.314;2023-10-19T03:31:58;10.90;99.90
40676;DHT22;26359;48.750;9.314;2023-10-19T03:34:24;10.90;99.90
40676;DHT22;26359;48.750;9.314;2023-10-19T03:36:50;10.90;99.90
40676;DHT22;26359;48.750;9.314;2023-10-19T03:39:19;10.90;99.90
40676;DHT22;26359;48.750;9.314;2023-10-19T03:41:46;11.00;99.90
40676;DHT22;26359;48.750;9.314;2023-10-19T03:44:12;11.00;99.90
40676;DHT22;26359;48.750;9.314;2023-10-19T03:46:44;11.00;99.90
40676;DHT22;26359;48.750;9.314;2023-10-19T03:49:22;11.00;99.90
40676;DHT22;26359;48.750;9.314;2023-10-19T03:51:48;11.00;99.90
40676;DHT22;26359;48.750;9.314;2023-10-19T03:54:31;11.00;99.90
40676;DHT22;26359;48.750;9.314;2023-10-19T03:56:58;11.00;99.90
40676;DHT22;26359;48.750;9.314;2023-10-19T03:59:31;11.00;99.90
40676;DHT22;26359;48.750;9.314;2023-10-19T04:01:59;11.00;99.90
40676;DHT22;26359;48.750;9.314;2023-10-19T04:04:26;11.00;99.90
40676;DHT22;26359;48.750;9.314;2023-10-19T04:06:52;10.90;99.90
40676;DHT22;26359;48.750;9.314;2023-10-19T04:09:24;10.90;99.90
40676;DHT22;26359;48.750;9.314;2023-10-19T04:11:55;10.90;99.90
40676;DHT22;26359;48.750;9.314;2023-10-19T04:14:21;10.80;99.90
40676;DHT22;26359;48.750;9.314;2023-10-19T04:16:47;10.80;99.90
40676;DHT22;26359;48.750;9.314;2023-10-19T04:19:14;10.70;99.90
40676;DHT22;26359;48.750;9.314;2023-10-19T04:21:41;10.70;99.90
40676;DHT22;26359;48.750;9.314;2023-10-19T04:24:10;10.80;99.90
40676;DHT22;26359;48.750;9.314;2023-10-19T04:26:36;10.70;99.90
40676;DHT22;26359;48.750;9.314;2023-10-19T04:29:03;10.80;99.90
40676;DHT22;26359;48.750;9.314;2023-10-19T04:31:37;10.80;99.90
40676;DHT22;26359;48.750;9.314;2023-10-19T04:34:03;10.80;99.90
40676;DHT22;26359;48.750;9.314;2023-10-19T04:36:33;10.80;99.90
40676;DHT22;26359;48.750;9.314;2023-10-19T04:38:59;10.70;99.90
40676;DHT22;26359;48.750;9.314;2023-10-19T04:41:25;10.70;99.90
40676;DHT22;26359;48.750;9.314;2023-10-19T04:43:54;10.70;99.90
40676;DHT22;26359;48.750;9.314;2023-10-19T04:46:20;10.60;99.90
40676;DHT22;26359;48.750;9.314;2023-10-19T04:48:46;10.60;99.90
40676;DHT22;26359;48.750;9.314;2023-10-19T04:51:11;10.60;99.90
40676;DHT22;26359;48.750;9.314;2023-10-19T04:53:37;10.60;99.90
40676;DHT22;26359;48.750;9.314;2023-10-19T04:56:05;10.60;99.90
40676;DHT22;26359;48.750;9.314;2023-10-19T04:58:31;10.60;99.90
40676;DHT22;26359;48.750;9.314;2023-10-19T05:00:56;10.70;99.90
40676;DHT22;26359;48.750;9.314;2023-10-19T05:03:25;10.70;99.90
40676;DHT22;26359;48.750;9.314;2023-10-19T05:05:50;10.70;99.90
40676;DHT22;26359;48.750;9.314;2023-10-19T05:08:16;10.70;99.90
40676;DHT22;26359;48.750;9.314;2023-10-19T05:10:42;10.70;99.90
40676;DHT22;26359;48.750;9.314;2023-10-19T05:13:07;10.70;99.90
40676;DHT22;26359;48.750;9.314;2023-10-19T05:15:33;10.70;99.90
40676;DHT22;26359;48.750;9.314;2023-10-19T05:18:02;10.70;99.90
40676;DHT22;26359;48.750;9.314;2023-10-19T05:20:27;10.60;99.90
40676;DHT22;26359;48.750;9.314;2023-10-19T05:22:53;10.60;99.90
40676;DHT22;26359;48.750;9.314;2023-10-19T05:25:18;10.60;99.90
40676;DHT22;26359;48.750;9.314;2023-10-19T05:27:44;10.60;99.90
40676;DHT22;26359;48.750;9.314;2023-10-19T05:30:11;10.60;99.90
40676;DHT22;26359;48.750;9.314;2023-10-19T05:32:37;10.60;99.90
40676;DHT22;26359;48.750;9.314;2023-10-19T05:35:03;10.70;99.90
40676;DHT22;26359;48.750;9.314;2023-10-19T05:37:30;10.70;99.90
40676;DHT22;26359;48.750;9.314;2023-10-19T05:39:56;10.70;99.90
40676;DHT22;26359;48.750;9.314;2023-10-19T05:42:21;10.60;99.90
40676;DHT22;26359;48.750;9.314;2023-10-19T05:44:47;10.60;99.90
40676;DHT22;26359;48.750;9.314;2023-10-19T05:47:13;10.60;99.90
40676;DHT22;26359;48.750;9.314;2023-10-19T05:49:38;10.50;99.90
40676;DHT22;26359;48.750;9.314;2023-10-19T05:52:04;10.50;99.90
40676;DHT22;26359;48.750;9.314;2023-10-19T05:54:29;10.50;99.90
40676;DHT22;26359;48.750;9.314;2023-10-19T05:56:56;10.50;99.90
40676;DHT22;26359;48.750;9.314;2023-10-19T05:59:22;10.50;99.90
40676;DHT22;26359;48.750;9.314;2023-10-19T06:01:51;10.50;99.90
40676;DHT22;26359;48.750;9.314;2023-10-19T06:04:17;10.50;99.90
40676;DHT22;26359;48.750;9.314;2023-10-19T06:06:43;10.50;99.90
40676;DHT22;26359;48.750;9.314;2023-10-19T06:09:08;10.60;99.90
40676;DHT22;26359;48.750;9.314;2023-10-19T06:11:34;10.60;99.90
40676;DHT22;26359;48.750;9.314;2023-10-19T06:14:05;10.60;99.90
40676;DHT22;26359;48.750;9.314;2023-10-19T06:16:35;10.60;99.90
40676;DHT22;26359;48.750;9.314;2023-10-19T06:19:00;10.60;99.90
40676;DHT22;26359;48.750;9.314;2023-10-19T06:21:26;10.70;99.90
40676;DHT22;26359;48.750;9.314;2023-10-19T06:23:52;10.70;99.90
40676;DHT22;26359;48.750;9.314;2023-10-19T06:26:19;10.70;99.90
40676;DHT22;26359;48.750;9.314;2023-10-19T06:28:44;10.70;99.90
40676;DHT22;26359;48.750;9.314;2023-10-19T06:31:10;10.70;99.90
40676;DHT22;26359;48.750;9.314;2023-10-19T06:33:35;10.70;99.90
40676;DHT22;26359;48.750;9.314;2023-10-19T06:36:02;10.80;99.90
40676;DHT22;26359;48.750;9.314;2023-10-19T06:38:29;10.80;99.90
40676;DHT22;26359;48.750;9.314;2023-10-19T06:40:56;10.80;99.90
40676;DHT22;26359;48.750;9.314;2023-10-19T06:43:22;10.80;99.90
40676;DHT22;26359;48.750;9.314;2023-10-19T06:45:53;10.80;99.90
40676;DHT22;26359;48.750;9.314;2023-10-19T06:48:20;10.90;99.90
40676;DHT22;26359;48.750;9.314;2023-10-19T06:50:46;10.90;99.90
40676;DHT22;26359;48.750;9.314;2023-10-19T06:53:12;10.90;99.90
40676;DHT22;26359;48.750;9.314;2023-10-19T06:55:37;10.90;99.90
40676;DHT22;26359;48.750;9.314;2023-10-19T06:58:03;11.00;99.90
40676;DHT22;26359;48.750;9.314;2023-10-19T07:00:30;11.00;99.90
40676;DHT22;26359;48.750;9.314;2023-10-19T07:02:57;11.10;99.90
40676;DHT22;26359;48.750;9.314;2023-10-19T07:05:26;11.10;99.90
40676;DHT22;26359;48.750;9.314;2023-10-19T07:07:55;11.20;99.90
40676;DHT22;26359;48.750;9.314;2023-10-19T07:10:22;11.20;99.90
40676;DHT22;26359;48.750;9.314;2023-10-19T07:12:51;11.30;99.90
40676;DHT22;26359;48.750;9.314;2023-10-19T07:15:19;11.30;99.90
40676;DHT22;26359;48.750;9.314;2023-10-19T07:17:45;11.30;99.90
40676;DHT22;26359;48.750;9.314;2023-10-19T07:20:14;11.40;99.90
40676;DHT22;26359;48.750;9.314;2023-10-19T07:23:02;11.40;99.90
40676;DHT22;26359;48.750;9.314;2023-10-19T07:25:47;11.40;99.90
40676;DHT22;26359;48.750;9.314;2023-10-19T07:28:18;11.50;99.90
40676;DHT22;26359;48.750;9.314;2023-10-19T07:30:45;11.50;99.90
40676;DHT22;26359;48.750;9.314;2023-10-19T07:33:12;11.50;99.90
40676;DHT22;26359;48.750;9.314;2023-10-19T07:35:49;11.60;99.90
40676;DHT22;26359;48.750;9.314;2023-10-19T07:38:21;11.60;99.90
40676;DHT22;26359;48.750;9.314;2023-10-19T07:40:47;11.70;99.90
40676;DHT22;26359;48.750;9.314;2023-10-19T07:43:13;11.70;99.90
40676;DHT22;26359;48.750;9.314;2023-10-19T07:45:39;11.70;99.90
40676;DHT22;26359;48.750;9.314;2023-10-19T07:48:05;11.70;99.90
40676;DHT22;26359;48.750;9.314;2023-10-19T07:50:37;11.70;99.90
40676;DHT22;26359;48.750;9.314;2023-10-19T07:53:03;11.80;99.90
40676;DHT22;26359;48.750;9.314;2023-10-19T07:55:29;12.00;99.90
40676;DHT22;26359;48.750;9.314;2023-10-19T07:57:57;12.10;99.90
40676;DHT22;26359;48.750;9.314;2023-10-19T08:00:26;12.10;99.90
40676;DHT22;26359;48.750;9.314;2023-10-19T08:02:52;12.20;99.90
40676;DHT22;26359;48.750;9.314;2023-10-19T08:05:19;12.20;99.90
40676;DHT22;26359;48.750;9.314;2023-10-19T08:07:45;12.20;99.90
40676;DHT22;26359;48.750;9.314;2023-10-19T08:10:16;12.20;99.90
40676;DHT22;26359;48.750;9.314;2023-10-19T08:12:42;12.20;99.90
40676;DHT22;26359;48.750;9.314;2023-10-19T08:15:09;12.20;99.90
40676;DHT22;26359;48.750;9.314;2023-10-19T08:17:40;12.30;99.90
40676;DHT22;26359;48.750;9.314;2023-10-19T08:20:07;12.30;99.90
40676;DHT22;26359;48.750;9.314;2023-10-19T08:22:44;12.40;99.90
40676;DHT22;26359;48.750;9.314;2023-10-19T08:25:12;12.40;99.90
40676;DHT22;26359;48.750;9.314;2023-10-19T08:27:43;12.40;99.90
40676;DHT22;26359;48.750;9.314;2023-10-19T08:30:14;12.50;99.90
40676;DHT22;26359;48.750;9.314;2023-10-19T08:32:41;12.50;99.90
40676;DHT22;26359;48.750;9.314;2023-10-19T08:35:08;12.60;99.90
40676;DHT22;26359;48.750;9.314;2023-10-19T08:37:34;12.60;99.90
40676;DHT22;26359;48.750;9.314;2023-10-19T08:40:00;12.70;99.90
40676;DHT22;26359;48.750;9.314;2023-10-19T08:42:26;12.90;99.90
40676;DHT22;26359;48.750;9.314;2023-10-19T08:44:51;13.00;99.90
40676;DHT22;26359;48.750;9.314;2023-10-19T08:47:17;13.20;99.90
40676;DHT22;26359;48.750;9.314;2023-10-19T08:49:42;13.20;99.90
40676;DHT22;26359;48.750;9.314;2023-10-19T08:52:08;13.20;99.90
40676;DHT22;26359;48.750;9.314;2023-10-19T08:54:34;13.30;99.90
40676;DHT22;26359;48.750;9.314;2023-10-19T08:57:00;13.30;99.90
40676;DHT22;26359;48.750;9.314;2023-10-19T08:59:26;13.40;99.90
40676;DHT22;26359;48.750;9.314;2023-10-19T09:02:02;13.50;99.90
40676;DHT22;26359;48.750;9.314;2023-10-19T09:04:29;13.60;99.90
40676;DHT22;26359;48.750;9.314;2023-10-19T09:06:55;13.70;99.90
40676;DHT22;26359;48.750;9.314;2023-10-19T09:09:20;13.90;99.90
40676;DHT22;26359;48.750;9.314;2023-10-19T09:11:47;14.00;99.90
40676;DHT22;26359;48.750;9.314;2023-10-19T09:14:13;14.10;99.90
40676;DHT22;26359;48.750;9.314;2023-10-19T09:16:53;14.20;99.90
40676;DHT22;26359;48.750;9.314;2023-10-19T09:19:42;14.30;99.90
40676;DHT22;26359;48.750;9.314;2023-10-19T09:22:09;14.50;99.90
40676;DHT22;26359;48.750;9.314;2023-10-19T09:24:45;14.70;99.90
40676;DHT22;26359;48.750;9.314;2023-10-19T09:27:11;15.00;99.90
40676;DHT22;26359;48.750;9.314;2023-10-19T09:29:38;15.20;99.90
40676;DHT22;26359;48.750;9.314;2023-10-19T09:32:05;15.20;99.90
40676;DHT22;26359;48.750;9.314;2023-10-19T09:34:32;15.10;99.90
40676;DHT22;26359;48.750;9.314;2023-10-19T09:37:00;15.10;99.90
40676;DHT22;26359;48.750;9.314;2023-10-19T09:39:27;15.10;99.90
40676;DHT22;26359;48.750;9.314;2023-10-19T09:42:06;15.00;99.90
40676;DHT22;26359;48.750;9.314;2023-10-19T09:44:41;15.00;99.90
40676;DHT22;26359;48.750;9.314;2023-10-19T09:47:21;15.10;99.90
40676;DHT22;26359;48.750;9.314;2023-10-19T09:49:49;15.10;99.90
40676;DHT22;26359;48.750;9.314;2023-10-19T09:52:16;15.10;99.90
40676;DHT22;26359;48.750;9.314;2023-10-19T09:57:55;15.10;99.90
40676;DHT22;26359;48.750;9.314;2023-10-19T10:00:21;15.20;99.90
40676;DHT22;26359;48.750;9.314;2023-10-19T10:02:51;15.10;99.90
40676;DHT22;26359;48.750;9.314;2023-10-19T10:10:46;15.10;99.90
40676;DHT22;26359;48.750;9.314;2023-10-19T10:13:36;15.10;99.90
40676;DHT22;26359;48.750;9.314;2023-10-19T10:16:01;15.10;99.90
40676;DHT22;26359;48.750;9.314;2023-10-19T10:18:32;15.00;99.90
40676;DHT22;26359;48.750;9.314;2023-10-19T10:23:56;15.00;99.90
40676;DHT22;26359;48.750;9.314;2023-10-19T10:26:24;14.90;99.90
40676;DHT22;26359;48.750;9.314;2023-10-19T10:29:11;14.90;99.90
40676;DHT22;26359;48.750;9.314;2023-10-19T10:31:44;14.90;99.90
40676;DHT22;26359;48.750;9.314;2023-10-19T10:34:10;14.90;99.90
40676;DHT22;26359;48.750;9.314;2023-10-19T10:36:58;14.90;99.90
40676;DHT22;26359;48.750;9.314;2023-10-19T10:39:31;15.00;99.90
40676;DHT22;26359;48.750;9.314;2023-10-19T10:41:58;15.00;99.90
40676;DHT22;26359;48.750;9.314;2023-10-19T10:49:35;15.10;99.90
40676;DHT22;26359;48.750;9.314;2023-10-19T10:52:01;15.00;99.90
40676;DHT22;26359;48.750;9.314;2023-10-19T10:54:26;15.10;99.90
40676;DHT22;26359;48.750;9.314;2023-10-19T10:56:52;15.10;99.90
40676;DHT22;26359;48.750;9.314;2023-10-19T10:59:17;15.10;99.90
40676;DHT22;26359;48.750;9.314;2023-10-19T11:01:43;15.10;99.90
40676;DHT22;26359;48.750;9.314;2023-10-19T11:04:09;15.00;99.90
40676;DHT22;26359;48.750;9.314;2023-10-19T11:06:50;15.00;99.90
40676;DHT22;26359;48.750;9.314;2023-10-19T11:09:16;15.00;99.90
40676;DHT22;26359;48.750;9.314;2023-10-19T11:11:45;15.00;99.90
40676;DHT22;26359;48.750;9.314;2023-10-19T11:14:11;15.00;99.90
40676;DHT22;26359;48.750;9.314;2023-10-19T11:16:37;15.10;99.90
40676;DHT22;26359;48.750;9.314;2023-10-19T11:19:05;15.00;99.90
40676;DHT22;26359;48.750;9.314;2023-10-19T11:21:30;15.00;99.90
40676;DHT22;26359;48.750;9.314;2023-10-19T11:23:56;15.00;99.90
40676;DHT22;26359;48.750;9.314;2023-10-19T11:26:23;15.00;99.90
40676;DHT22;26359;48.750;9.314;2023-10-19T11:28:59;15.00;99.90
40676;DHT22;26359;48.750;9.314;2023-10-19T11:31:26;15.00;99.90
40676;DHT22;26359;48.750;9.314;2023-10-19T11:33:54;14.90;99.90
40676;DHT22;26359;48.750;9.314;2023-10-19T11:36:21;14.90;99.90
40676;DHT22;26359;48.750;9.314;2023-10-19T11:38:50;14.90;99.90
40676;DHT22;26359;48.750;9.314;2023-10-19T11:41:19;14.90;99.90
40676;DHT22;26359;48.750;9.314;2023-10-19T11:43:46;14.90;99.90
40676;DHT22;26359;48.750;9.314;2023-10-19T11:46:13;14.90;99.90
40676;DHT22;26359;48.750;9.314;2023-10-19T11:48:44;14.90;99.90
40676;DHT22;26359;48.750;9.314;2023-10-19T11:51:10;14.90;99.90
40676;DHT22;26359;48.750;9.314;2023-10-19T11:53:40;14.90;99.90
40676;DHT22;26359;48.750;9.314;2023-10-19T11:56:08;14.80;99.90
40676;DHT22;26359;48.750;9.314;2023-10-19T11:58:35;14.90;99.90
40676;DHT22;26359;48.750;9.314;2023-10-19T12:01:02;14.90;99.90
40676;DHT22;26359;48.750;9.314;2023-10-19T12:03:31;14.90;99.90
40676;DHT22;26359;48.750;9.314;2023-10-19T12:05:56;14.80;99.90
40676;DHT22;26359;48.750;9.314;2023-10-19T12:08:22;14.90;99.90
40676;DHT22;26359;48.750;9.314;2023-10-19T12:10:50;14.90;99.90
40676;DHT22;26359;48.750;9.314;2023-10-19T12:13:15;14.90;99.90
40676;DHT22;26359;48.750;9.314;2023-10-19T12:15:42;14.90;99.90
40676;DHT22;26359;48.750;9.314;2023-10-19T12:18:07;14.90;99.90
40676;DHT22;26359;48.750;9.314;2023-10-19T12:20:33;14.90;99.90
40676;DHT22;26359;48.750;9.314;2023-10-19T12:23:00;14.90;99.90
40676;DHT22;26359;48.750;9.314;2023-10-19T12:25:26;14.90;99.90
40676;DHT22;26359;48.750;9.314;2023-10-19T12:27:56;14.90;99.90
40676;DHT22;26359;48.750;9.314;2023-10-19T12:30:22;14.90;99.90
40676;DHT22;26359;48.750;9.314;2023-10-19T12:32:52;14.90;99.90
40676;DHT22;26359;48.750;9.314;2023-10-19T12:35:18;14.90;99.90
40676;DHT22;26359;48.750;9.314;2023-10-19T12:37:55;14.90;99.90
40676;DHT22;26359;48.750;9.314;2023-10-19T12:40:21;15.00;99.90
40676;DHT22;26359;48.750;9.314;2023-10-19T12:42:54;15.00;99.90
40676;DHT22;26359;48.750;9.314;2023-10-19T12:45:23;15.00;99.90
40676;DHT22;26359;48.750;9.314;2023-10-19T12:47:49;15.00;99.90
40676;DHT22;26359;48.750;9.314;2023-10-19T12:50:20;15.00;99.90
40676;DHT22;26359;48.750;9.314;2023-10-19T12:52:51;15.00;99.90
40676;DHT22;26359;48.750;9.314;2023-10-19T12:55:18;15.00;99.90
40676;DHT22;26359;48.750;9.314;2023-10-19T12:57:43;15.00;99.90
40676;DHT22;26359;48.750;9.314;2023-10-19T13:00:09;15.00;99.90
40676;DHT22;26359;48.750;9.314;2023-10-19T13:02:53;15.10;99.90
40676;DHT22;26359;48.750;9.314;2023-10-19T13:05:26;15.10;99.90
40676;DHT22;26359;48.750;9.314;2023-10-19T13:07:52;15.10;99.90
40676;DHT22;26359;48.750;9.314;2023-10-19T13:10:17;15.00;99.90
40676;DHT22;26359;48.750;9.314;2023-10-19T13:12:43;14.90;99.90
40676;DHT22;26359;48.750;9.314;2023-10-19T13:15:09;14.80;99.90
40676;DHT22;26359;48.750;9.314;2023-10-19T13:17:41;14.80;99.90
40676;DHT22;26359;48.750;9.314;2023-10-19T13:20:08;14.80;99.90
40676;DHT22;26359;48.750;9.314;2023-10-19T13:22:42;14.70;99.90
40676;DHT22;26359;48.750;9.314;2023-10-19T13:25:08;14.70;99.90
40676;DHT22;26359;48.750;9.314;2023-10-19T13:27:43;14.70;99.90
40676;DHT22;26359;48.750;9.314;2023-10-19T13:30:10;14.60;99.90
40676;DHT22;26359;48.750;9.314;2023-10-19T13:32:37;14.60;99.90
40676;DHT22;26359;48.750;9.314;2023-10-19T13:35:03;14.70;99.90
40676;DHT22;26359;48.750;9.314;2023-10-19T13:37:29;14.70;99.90
40676;DHT22;26359;48.750;9.314;2023-10-19T13:39:55;14.80;99.90
40676;DHT22;26359;48.750;9.314;2023-10-19T13:42:21;14.80;99.90
40676;DHT22;26359;48.750;9.314;2023-10-19T13:44:49;14.80;99.90
40676;DHT22;26359;48.750;9.314;2023-10-19T13:47:14;14.80;99.90
40676;DHT22;26359;48.750;9.314;2023-10-19T13:49:41;14.80;99.90
40676;DHT22;26359;48.750;9.314;2023-10-19T13:52:07;14.80;99.90
40676;DHT22;26359;48.750;9.314;2023-10-19T13:54:37;14.80;99.90
40676;DHT22;26359;48.750;9.314;2023-10-19T13:57:03;14.80;99.90
40676;DHT22;26359;48.750;9.314;2023-10-19T13:59:29;14.70;99.90
40676;DHT22;26359;48.750;9.314;2023-10-19T14:01:55;14.70;99.90
40676;DHT22;26359;48.750;9.314;2023-10-19T14:04:20;14.70;99.90
40676;DHT22;26359;48.750;9.314;2023-10-19T14:06:46;14.70;99.90
40676;DHT22;26359;48.750;9.314;2023-10-19T14:09:14;14.70;99.90
40676;DHT22;26359;48.750;9.314;2023-10-19T14:11:40;14.70;99.90
40676;DHT22;26359;48.750;9.314;2023-10-19T14:14:06;14.70;99.90
40676;DHT22;26359;48.750;9.314;2023-10-19T14:16:32;14.70;99.90
40676;DHT22;26359;48.750;9.314;2023-10-19T14:18:57;14.80;99.90
40676;DHT22;26359;48.750;9.314;2023-10-19T14:21:23;14.80;99.90
40676;DHT22;26359;48.750;9.314;2023-10-19T14:23:52;14.80;99.90
40676;DHT22;26359;48.750;9.314;2023-10-19T14:26:19;14.80;99.90
40676;DHT22;26359;48.750;9.314;2023-10-19T14:28:45;14.80;99.90
40676;DHT22;26359;48.750;9.314;2023-10-19T14:31:10;14.80;99.90
40676;DHT22;26359;48.750;9.314;2023-10-19T14:33:37;14.80;99.90
40676;DHT22;26359;48.750;9.314;2023-10-19T14:36:06;14.80;99.90
40676;DHT22;26359;48.750;9.314;2023-10-19T14:38:33;14.80;99.90
40676;DHT22;26359;48.750;9.314;2023-10-19T14:40:59;14.80;99.90
40676;DHT22;26359;48.750;9.314;2023-10-19T14:43:24;14.90;99.90
40676;DHT22;26359;48.750;9.314;2023-10-19T14:45:54;14.80;99.90
40676;DHT22;26359;48.750;9.314;2023-10-19T14:48:22;14.80;99.90
40676;DHT22;26359;48.750;9.314;2023-10-19T14:50:48;14.80;99.90
40676;DHT22;26359;48.750;9.314;2023-10-19T14:53:16;14.80;99.90
40676;DHT22;26359;48.750;9.314;2023-10-19T14:55:43;14.80;99.90
40676;DHT22;26359;48.750;9.314;2023-10-19T14:58:11;14.80;99.90
40676;DHT22;26359;48.750;9.314;2023-10-19T15:00:37;14.80;99.90
40676;DHT22;26359;48.750;9.314;2023-10-19T15:03:07;14.80;99.90
40676;DHT22;26359;48.750;9.314;2023-10-19T15:05:34;14.80;99.90
40676;DHT22;26359;48.750;9.314;2023-10-19T15:08:01;14.80;99.90
40676;DHT22;26359;48.750;9.314;2023-10-19T15:10:28;14.80;99.90
40676;DHT22;26359;48.750;9.314;2023-10-19T15:12:55;14.80;99.90
40676;DHT22;26359;48.750;9.314;2023-10-19T15:15:27;14.80;99.90
40676;DHT22;26359;48.750;9.314;2023-10-19T15:17:53;14.80;99.90
40676;DHT22;26359;48.750;9.314;2023-10-19T15:20:21;14.80;99.90
40676;DHT22;26359;48.750;9.314;2023-10-19T15:22:48;14.80;99.90
40676;DHT22;26359;48.750;9.314;2023-10-19T15:25:14;14.80;99.90
40676;DHT22;26359;48.750;9.314;2023-10-19T15:27:43;14.80;99.90
40676;DHT22;26359;48.750;9.314;2023-10-19T15:30:11;14.80;99.90
40676;DHT22;26359;48.750;9.314;2023-10-19T15:32:40;14.90;99.90
40676;DHT22;26359;48.750;9.314;2023-10-19T15:35:13;14.90;99.90
40676;DHT22;26359;48.750;9.314;2023-10-19T15:37:41;14.90;99.90
40676;DHT22;26359;48.750;9.314;2023-10-19T15:40:07;14.90;99.90
40676;DHT22;26359;48.750;9.314;2023-10-19T15:42:33;14.90;99.90
40676;DHT22;26359;48.750;9.314;2023-10-19T15:45:01;14.90;99.90
40676;DHT22;26359;48.750;9.314;2023-10-19T15:47:27;14.90;99.90
40676;DHT22;26359;48.750;9.314;2023-10-19T15:49:55;14.90;99.90
40676;DHT22;26359;48.750;9.314;2023-10-19T15:52:25;14.90;99.90
40676;DHT22;26359;48.750;9.314;2023-10-19T15:54:54;14.90;99.90
40676;DHT22;26359;48.750;9.314;2023-10-19T15:57:20;14.90;99.90